sensor_id;sensor_type;location;lat;lon;timestamp;pressure;altitude;pressure_sealevel;temperature;humidity
23361;BME280;11852;50.082;18.554;2022-09-09T00:00:47;98263.5;;;19.0;84.93
23361;BME280;11852;50.082;18.554;2022-09-09T00:03:12;98266.5;;;19.08;84.68
23361;BME280;11852;50.082;18.554;2022-09-09T00:07:51;98265.5;;;18.83;84.9
23361;BME280;11852;50.082;18.554;2022-09-09T00:09:05;98267.01;;;18.92;84.63
23361;BME280;11852;50.082;18.554;2022-09-09T00:11:24;98268.5;;;18.72;84.99
23361;BME280;11852;50.082;18.554;2022-09-09T00:12:33;98269.0;;;18.78;84.79
23361;BME280;11852;50.082;18.554;2022-09-09T00:14:51;98271.0;;;18.84;84.63
23361;BME280;11852;50.082;18.554;2022-09-09T00:17:14;98267.5;;;18.22;86.18
23361;BME280;11852;50.082;18.554;2022-09-09T00:18:21;98269.0;;;18.55;85.1
23361;BME280;11852;50.082;18.554;2022-09-09T00:19:27;98267.5;;;18.55;85.01
23361;BME280;11852;50.082;18.554;2022-09-09T00:20:32;98267.51;;;18.07;86.4
23361;BME280;11852;50.082;18.554;2022-09-09T00:22:46;98270.49;;;18.44;85.03
23361;BME280;11852;50.082;18.554;2022-09-09T00:23:51;98268.0;;;18.29;85.51
23361;BME280;11852;50.082;18.554;2022-09-09T00:24:55;98269.5;;;18.19;85.76
23361;BME280;11852;50.082;18.554;2022-09-09T00:26:04;98269.49;;;18.05;86.2
23361;BME280;11852;50.082;18.554;2022-09-09T00:30:31;98274.5;;;18.34;85.15
23361;BME280;11852;50.082;18.554;2022-09-09T00:31:35;98272.5;;;18.45;84.93
23361;BME280;11852;50.082;18.554;2022-09-09T00:32:39;98275.0;;;18.15;85.68
23361;BME280;11852;50.082;18.554;2022-09-09T00:33:44;98273.5;;;18.26;85.22
23361;BME280;11852;50.082;18.554;2022-09-09T00:35:56;98271.5;;;18.28;85.17
23361;BME280;11852;50.082;18.554;2022-09-09T00:36:59;98273.5;;;18.41;84.85
23361;BME280;11852;50.082;18.554;2022-09-09T00:39:10;98275.0;;;18.39;84.77
23361;BME280;11852;50.082;18.554;2022-09-09T00:40:18;98279.0;;;18.2;85.18
23361;BME280;11852;50.082;18.554;2022-09-09T00:42:34;98280.01;;;18.18;85.12
23361;BME280;11852;50.082;18.554;2022-09-09T00:43:37;98279.5;;;17.92;85.82
23361;BME280;11852;50.082;18.554;2022-09-09T00:48:14;98284.0;;;17.92;85.71
23361;BME280;11852;50.082;18.554;2022-09-09T00:50:42;98289.0;;;17.95;85.64
23361;BME280;11852;50.082;18.554;2022-09-09T00:56:26;98291.5;;;17.92;85.49
23361;BME280;11852;50.082;18.554;2022-09-09T00:57:30;98292.5;;;17.51;86.85
23361;BME280;11852;50.082;18.554;2022-09-09T00:58:33;98291.0;;;17.36;87.07
23361;BME280;11852;50.082;18.554;2022-09-09T00:59:45;98295.49;;;17.64;86.14
23361;BME280;11852;50.082;18.554;2022-09-09T01:00:50;98300.0;;;17.81;85.76
23361;BME280;11852;50.082;18.554;2022-09-09T01:01:52;98300.0;;;17.59;86.4
23361;BME280;11852;50.082;18.554;2022-09-09T01:04:10;98301.0;;;17.6;86.22
23361;BME280;11852;50.082;18.554;2022-09-09T01:05:17;98302.0;;;17.69;85.86
23361;BME280;11852;50.082;18.554;2022-09-09T01:07:30;98297.5;;;17.76;85.76
23361;BME280;11852;50.082;18.554;2022-09-09T01:08:42;98299.0;;;17.93;85.21
23361;BME280;11852;50.082;18.554;2022-09-09T01:10:55;98301.5;;;17.98;85.15
23361;BME280;11852;50.082;18.554;2022-09-09T01:13:15;98303.5;;;17.98;85.04
23361;BME280;11852;50.082;18.554;2022-09-09T01:15:32;98304.0;;;17.9;85.18
23361;BME280;11852;50.082;18.554;2022-09-09T01:16:36;98307.99;;;17.83;85.32
23361;BME280;11852;50.082;18.554;2022-09-09T01:17:50;98309.5;;;17.92;84.97
23361;BME280;11852;50.082;18.554;2022-09-09T01:18:53;98307.5;;;17.74;85.35
23361;BME280;11852;50.082;18.554;2022-09-09T01:22:28;98304.0;;;17.73;85.27
23361;BME280;11852;50.082;18.554;2022-09-09T01:23:38;98306.0;;;17.49;85.96
23361;BME280;11852;50.082;18.554;2022-09-09T01:24:46;98305.5;;;17.48;85.9
23361;BME280;11852;50.082;18.554;2022-09-09T01:27:02;98304.0;;;17.74;85.1
23361;BME280;11852;50.082;18.554;2022-09-09T01:28:08;98307.99;;;17.64;85.35
23361;BME280;11852;50.082;18.554;2022-09-09T01:29:11;98310.0;;;17.51;85.85
23361;BME280;11852;50.082;18.554;2022-09-09T01:30:15;98309.5;;;17.51;85.71
23361;BME280;11852;50.082;18.554;2022-09-09T01:31:20;98312.0;;;17.38;86.14
23361;BME280;11852;50.082;18.554;2022-09-09T01:33:37;98312.5;;;17.58;85.44
23361;BME280;11852;50.082;18.554;2022-09-09T01:34:42;98316.0;;;17.36;86.09
23361;BME280;11852;50.082;18.554;2022-09-09T01:38:07;98320.0;;;17.63;85.46
23361;BME280;11852;50.082;18.554;2022-09-09T01:39:12;98323.0;;;17.67;85.28
23361;BME280;11852;50.082;18.554;2022-09-09T01:40:16;98325.5;;;17.7;85.18
23361;BME280;11852;50.082;18.554;2022-09-09T01:41:21;98324.0;;;17.57;85.5
23361;BME280;11852;50.082;18.554;2022-09-09T01:42:25;98327.0;;;17.76;85.01
23361;BME280;11852;50.082;18.554;2022-09-09T01:43:29;98325.5;;;17.82;84.88
23361;BME280;11852;50.082;18.554;2022-09-09T01:44:34;98327.5;;;17.87;84.76
23361;BME280;11852;50.082;18.554;2022-09-09T01:45:39;98330.0;;;17.74;85.07
23361;BME280;11852;50.082;18.554;2022-09-09T01:46:43;98329.0;;;17.77;85.1
23361;BME280;11852;50.082;18.554;2022-09-09T01:47:46;98334.0;;;17.65;85.4
23361;BME280;11852;50.082;18.554;2022-09-09T01:48:51;98327.5;;;17.72;85.17
23361;BME280;11852;50.082;18.554;2022-09-09T01:49:54;98325.0;;;17.8;84.97
23361;BME280;11852;50.082;18.554;2022-09-09T01:50:59;98328.5;;;17.63;85.42
23361;BME280;11852;50.082;18.554;2022-09-09T01:52:03;98325.0;;;17.58;85.47
23361;BME280;11852;50.082;18.554;2022-09-09T01:53:08;98325.0;;;17.53;85.68
23361;BME280;11852;50.082;18.554;2022-09-09T01:54:12;98324.0;;;17.48;85.75
23361;BME280;11852;50.082;18.554;2022-09-09T01:55:16;98321.5;;;17.19;86.7
23361;BME280;11852;50.082;18.554;2022-09-09T01:56:24;98326.0;;;17.39;85.81
23361;BME280;11852;50.082;18.554;2022-09-09T01:57:30;98330.0;;;17.26;86.26
23361;BME280;11852;50.082;18.554;2022-09-09T01:58:41;98330.5;;;17.28;86.22
23361;BME280;11852;50.082;18.554;2022-09-09T02:01:02;98339.0;;;17.49;85.63
23361;BME280;11852;50.082;18.554;2022-09-09T02:02:11;98339.5;;;17.55;85.46
23361;BME280;11852;50.082;18.554;2022-09-09T02:03:20;98339.0;;;17.44;85.85
23361;BME280;11852;50.082;18.554;2022-09-09T02:06:37;98339.5;;;17.36;86.08
23361;BME280;11852;50.082;18.554;2022-09-09T02:07:42;98335.5;;;17.32;86.15
23361;BME280;11852;50.082;18.554;2022-09-09T02:08:45;98337.5;;;17.28;86.21
23361;BME280;11852;50.082;18.554;2022-09-09T02:09:50;98339.5;;;17.53;85.49
23361;BME280;11852;50.082;18.554;2022-09-09T02:12:05;98338.0;;;17.51;85.41
23361;BME280;11852;50.082;18.554;2022-09-09T02:13:11;98339.0;;;17.47;85.56
23361;BME280;11852;50.082;18.554;2022-09-09T02:14:15;98343.5;;;17.43;85.65
23361;BME280;11852;50.082;18.554;2022-09-09T02:15:22;98341.0;;;17.42;85.69
23361;BME280;11852;50.082;18.554;2022-09-09T02:17:35;98343.0;;;17.31;85.93
23361;BME280;11852;50.082;18.554;2022-09-09T02:20:02;98347.5;;;17.55;85.38
23361;BME280;11852;50.082;18.554;2022-09-09T02:21:04;98349.0;;;17.63;85.19
23361;BME280;11852;50.082;18.554;2022-09-09T02:22:13;98346.5;;;17.54;85.4
23361;BME280;11852;50.082;18.554;2022-09-09T02:23:17;98347.5;;;17.5;85.5
23361;BME280;11852;50.082;18.554;2022-09-09T02:24:21;98344.99;;;17.57;85.27
23361;BME280;11852;50.082;18.554;2022-09-09T02:25:26;98350.0;;;17.66;85.1
23361;BME280;11852;50.082;18.554;2022-09-09T02:26:31;98353.0;;;17.59;85.17
23361;BME280;11852;50.082;18.554;2022-09-09T02:27:34;98349.0;;;17.65;85.01
23361;BME280;11852;50.082;18.554;2022-09-09T02:28:39;98350.5;;;17.8;84.57
23361;BME280;11852;50.082;18.554;2022-09-09T02:29:43;98355.5;;;17.78;84.62
23361;BME280;11852;50.082;18.554;2022-09-09T02:30:47;98352.0;;;17.8;84.51
23361;BME280;11852;50.082;18.554;2022-09-09T02:31:51;98354.5;;;17.74;84.65
23361;BME280;11852;50.082;18.554;2022-09-09T02:32:56;98352.5;;;17.83;84.33
23361;BME280;11852;50.082;18.554;2022-09-09T02:34:00;98355.5;;;17.92;84.01
23361;BME280;11852;50.082;18.554;2022-09-09T02:35:11;98357.0;;;17.95;84.01
23361;BME280;11852;50.082;18.554;2022-09-09T02:36:14;98352.5;;;17.81;84.41
23361;BME280;11852;50.082;18.554;2022-09-09T02:37:19;98350.5;;;17.8;84.29
23361;BME280;11852;50.082;18.554;2022-09-09T02:38:23;98348.5;;;17.76;84.4
23361;BME280;11852;50.082;18.554;2022-09-09T02:39:27;98347.5;;;17.78;84.35
23361;BME280;11852;50.082;18.554;2022-09-09T02:40:31;98344.0;;;17.9;84.05
23361;BME280;11852;50.082;18.554;2022-09-09T02:41:36;98341.5;;;17.83;84.06
23361;BME280;11852;50.082;18.554;2022-09-09T02:42:43;98343.0;;;17.56;84.79
23361;BME280;11852;50.082;18.554;2022-09-09T02:43:47;98344.5;;;17.72;84.25
23361;BME280;11852;50.082;18.554;2022-09-09T02:44:51;98348.0;;;17.81;83.96
23361;BME280;11852;50.082;18.554;2022-09-09T02:48:16;98354.0;;;17.77;84.0
23361;BME280;11852;50.082;18.554;2022-09-09T02:49:20;98357.0;;;17.7;84.26
23361;BME280;11852;50.082;18.554;2022-09-09T02:50:24;98354.0;;;17.7;84.12
23361;BME280;11852;50.082;18.554;2022-09-09T02:51:35;98358.5;;;17.76;83.88
23361;BME280;11852;50.082;18.554;2022-09-09T02:55:03;98365.5;;;17.59;84.28
23361;BME280;11852;50.082;18.554;2022-09-09T02:56:05;98362.0;;;17.34;84.84
23361;BME280;11852;50.082;18.554;2022-09-09T02:57:16;98359.5;;;17.19;85.32
23361;BME280;11852;50.082;18.554;2022-09-09T02:58:18;98359.5;;;16.97;85.87
23361;BME280;11852;50.082;18.554;2022-09-09T02:59:22;98360.5;;;16.9;86.05
23361;BME280;11852;50.082;18.554;2022-09-09T03:00:27;98363.5;;;16.76;86.33
23361;BME280;11852;50.082;18.554;2022-09-09T03:01:31;98365.0;;;16.72;86.59
23361;BME280;11852;50.082;18.554;2022-09-09T03:02:35;98363.5;;;16.74;86.43
23361;BME280;11852;50.082;18.554;2022-09-09T03:03:39;98364.5;;;16.81;86.24
23361;BME280;11852;50.082;18.554;2022-09-09T03:04:44;98364.5;;;17.06;85.51
23361;BME280;11852;50.082;18.554;2022-09-09T03:05:48;98365.5;;;17.19;85.28
23361;BME280;11852;50.082;18.554;2022-09-09T03:06:53;98366.0;;;17.01;85.89
23361;BME280;11852;50.082;18.554;2022-09-09T03:07:57;98366.5;;;16.66;86.85
23361;BME280;11852;50.082;18.554;2022-09-09T03:09:04;98368.0;;;16.66;86.65
23361;BME280;11852;50.082;18.554;2022-09-09T03:10:08;98369.5;;;16.73;86.35
23361;BME280;11852;50.082;18.554;2022-09-09T03:11:12;98368.0;;;16.8;86.22
23361;BME280;11852;50.082;18.554;2022-09-09T03:12:17;98368.0;;;16.6;86.88
23361;BME280;11852;50.082;18.554;2022-09-09T03:13:21;98369.5;;;16.86;86.05
23361;BME280;11852;50.082;18.554;2022-09-09T03:14:26;98367.5;;;17.1;85.3
23361;BME280;11852;50.082;18.554;2022-09-09T03:15:31;98372.0;;;16.97;85.62
23361;BME280;11852;50.082;18.554;2022-09-09T03:16:34;98375.0;;;17.14;85.07
23361;BME280;11852;50.082;18.554;2022-09-09T03:17:38;98374.5;;;16.99;85.51
23361;BME280;11852;50.082;18.554;2022-09-09T03:18:43;98379.0;;;17.17;85.07
23361;BME280;11852;50.082;18.554;2022-09-09T03:19:47;98377.0;;;16.93;85.68
23361;BME280;11852;50.082;18.554;2022-09-09T03:20:51;98377.5;;;16.96;85.64
23361;BME280;11852;50.082;18.554;2022-09-09T03:21:56;98375.5;;;17.13;85.13
23361;BME280;11852;50.082;18.554;2022-09-09T03:23:00;98374.5;;;17.08;85.21
23361;BME280;11852;50.082;18.554;2022-09-09T03:24:04;98374.5;;;17.26;84.68
23361;BME280;11852;50.082;18.554;2022-09-09T03:25:08;98376.5;;;17.33;84.54
23361;BME280;11852;50.082;18.554;2022-09-09T03:26:13;98373.0;;;17.34;84.49
23361;BME280;11852;50.082;18.554;2022-09-09T03:27:19;98377.5;;;17.3;84.57
23361;BME280;11852;50.082;18.554;2022-09-09T03:28:24;98377.5;;;17.33;84.32
23361;BME280;11852;50.082;18.554;2022-09-09T03:29:28;98377.0;;;17.24;84.49
23361;BME280;11852;50.082;18.554;2022-09-09T03:30:32;98377.5;;;17.01;85.01
23361;BME280;11852;50.082;18.554;2022-09-09T03:31:36;98377.5;;;17.05;84.82
23361;BME280;11852;50.082;18.554;2022-09-09T03:32:41;98379.0;;;16.9;85.26
23361;BME280;11852;50.082;18.554;2022-09-09T03:33:46;98379.0;;;16.83;85.57
23361;BME280;11852;50.082;18.554;2022-09-09T03:35:55;98382.49;;;16.66;85.93
23361;BME280;11852;50.082;18.554;2022-09-09T03:36:59;98383.5;;;16.34;86.97
23361;BME280;11852;50.082;18.554;2022-09-09T03:38:04;98383.0;;;16.33;86.85
23361;BME280;11852;50.082;18.554;2022-09-09T03:39:08;98384.5;;;16.26;86.92
23361;BME280;11852;50.082;18.554;2022-09-09T03:40:13;98386.0;;;16.18;87.28
23361;BME280;11852;50.082;18.554;2022-09-09T03:41:17;98386.0;;;16.47;86.26
23361;BME280;11852;50.082;18.554;2022-09-09T03:42:22;98387.0;;;16.39;86.58
23361;BME280;11852;50.082;18.554;2022-09-09T03:43:26;98388.0;;;16.58;86.01
23361;BME280;11852;50.082;18.554;2022-09-09T03:44:30;98387.0;;;16.46;86.29
23361;BME280;11852;50.082;18.554;2022-09-09T03:45:35;98390.0;;;16.64;85.79
23361;BME280;11852;50.082;18.554;2022-09-09T03:46:41;98388.5;;;16.63;85.9
23361;BME280;11852;50.082;18.554;2022-09-09T03:47:45;98388.5;;;16.8;85.29
23361;BME280;11852;50.082;18.554;2022-09-09T03:48:50;98393.5;;;16.75;85.44
23361;BME280;11852;50.082;18.554;2022-09-09T03:49:54;98397.0;;;16.6;85.88
23361;BME280;11852;50.082;18.554;2022-09-09T03:50:58;98396.5;;;16.27;86.88
23361;BME280;11852;50.082;18.554;2022-09-09T03:52:02;98398.5;;;16.25;86.86
23361;BME280;11852;50.082;18.554;2022-09-09T03:53:06;98399.5;;;16.32;86.43
23361;BME280;11852;50.082;18.554;2022-09-09T03:54:11;98399.5;;;16.39;86.25
23361;BME280;11852;50.082;18.554;2022-09-09T03:55:15;98398.0;;;16.46;85.96
23361;BME280;11852;50.082;18.554;2022-09-09T03:56:20;98396.0;;;16.35;86.49
23361;BME280;11852;50.082;18.554;2022-09-09T03:57:24;98400.5;;;16.4;86.24
23361;BME280;11852;50.082;18.554;2022-09-09T03:58:30;98401.0;;;16.25;86.74
23361;BME280;11852;50.082;18.554;2022-09-09T03:59:34;98402.0;;;16.29;86.54
23361;BME280;11852;50.082;18.554;2022-09-09T04:00:39;98407.5;;;16.35;86.37
23361;BME280;11852;50.082;18.554;2022-09-09T04:01:43;98409.5;;;16.42;86.1
23361;BME280;11852;50.082;18.554;2022-09-09T04:02:47;98408.5;;;16.28;86.67
23361;BME280;11852;50.082;18.554;2022-09-09T04:05:43;98408.5;;;16.31;86.46
23361;BME280;11852;50.082;18.554;2022-09-09T04:06:50;98406.5;;;16.18;86.94
23361;BME280;11852;50.082;18.554;2022-09-09T04:07:54;98409.5;;;16.47;86.1
23361;BME280;11852;50.082;18.554;2022-09-09T04:08:59;98406.5;;;16.23;86.92
23361;BME280;11852;50.082;18.554;2022-09-09T04:10:03;98406.0;;;16.28;86.65
23361;BME280;11852;50.082;18.554;2022-09-09T04:11:08;98406.5;;;16.19;86.89
23361;BME280;11852;50.082;18.554;2022-09-09T04:12:12;98403.5;;;16.55;85.97
23361;BME280;11852;50.082;18.554;2022-09-09T04:13:17;98406.5;;;16.74;85.36
23361;BME280;11852;50.082;18.554;2022-09-09T04:14:21;98403.0;;;16.94;84.93
23361;BME280;11852;50.082;18.554;2022-09-09T04:15:25;98404.51;;;16.9;85.19
23361;BME280;11852;50.082;18.554;2022-09-09T04:16:30;98407.0;;;17.01;85.01
23361;BME280;11852;50.082;18.554;2022-09-09T04:17:34;98403.5;;;16.93;85.17
23361;BME280;11852;50.082;18.554;2022-09-09T04:18:39;98404.5;;;16.71;85.81
23361;BME280;11852;50.082;18.554;2022-09-09T04:19:43;98403.0;;;16.51;86.39
23361;BME280;11852;50.082;18.554;2022-09-09T04:20:52;98402.5;;;16.4;86.57
23361;BME280;11852;50.082;18.554;2022-09-09T04:21:58;98400.5;;;16.3;86.87
23361;BME280;11852;50.082;18.554;2022-09-09T04:23:01;98401.0;;;16.19;87.18
23361;BME280;11852;50.082;18.554;2022-09-09T04:24:05;98399.5;;;16.4;86.38
23361;BME280;11852;50.082;18.554;2022-09-09T04:25:14;98397.5;;;16.28;86.85
23361;BME280;11852;50.082;18.554;2022-09-09T04:26:18;98399.0;;;16.4;86.51
23361;BME280;11852;50.082;18.554;2022-09-09T04:27:22;98395.5;;;16.74;85.54
23361;BME280;11852;50.082;18.554;2022-09-09T04:28:28;98395.5;;;16.8;85.51
23361;BME280;11852;50.082;18.554;2022-09-09T04:29:31;98396.0;;;16.45;86.63
23361;BME280;11852;50.082;18.554;2022-09-09T04:30:38;98395.0;;;16.56;86.15
23361;BME280;11852;50.082;18.554;2022-09-09T04:31:43;98395.0;;;16.63;85.91
23361;BME280;11852;50.082;18.554;2022-09-09T04:32:47;98396.5;;;16.55;86.28
23361;BME280;11852;50.082;18.554;2022-09-09T04:33:52;98396.5;;;16.26;87.14
23361;BME280;11852;50.082;18.554;2022-09-09T04:34:56;98397.0;;;16.56;86.1
23361;BME280;11852;50.082;18.554;2022-09-09T04:36:00;98397.5;;;16.38;86.68
23361;BME280;11852;50.082;18.554;2022-09-09T04:37:05;98397.5;;;16.51;86.26
23361;BME280;11852;50.082;18.554;2022-09-09T04:38:10;98395.5;;;16.58;85.56
23361;BME280;11852;50.082;18.554;2022-09-09T04:39:15;98393.0;;;16.85;85.26
23361;BME280;11852;50.082;18.554;2022-09-09T04:40:19;98398.0;;;16.77;85.49
23361;BME280;11852;50.082;18.554;2022-09-09T04:42:28;98394.0;;;16.53;86.17
23361;BME280;11852;50.082;18.554;2022-09-09T04:43:32;98399.5;;;16.49;86.3
23361;BME280;11852;50.082;18.554;2022-09-09T04:44:36;98396.5;;;16.66;85.68
23361;BME280;11852;50.082;18.554;2022-09-09T04:45:46;98397.0;;;16.94;84.79
23361;BME280;11852;50.082;18.554;2022-09-09T04:46:48;98398.5;;;17.0;84.78
23361;BME280;11852;50.082;18.554;2022-09-09T04:47:53;98394.5;;;17.03;84.61
23361;BME280;11852;50.082;18.554;2022-09-09T04:48:57;98395.5;;;17.02;84.68
23361;BME280;11852;50.082;18.554;2022-09-09T04:50:02;98395.49;;;17.05;84.67
23361;BME280;11852;50.082;18.554;2022-09-09T04:51:08;98397.0;;;17.17;84.26
23361;BME280;11852;50.082;18.554;2022-09-09T04:52:10;98395.5;;;17.17;84.26
23361;BME280;11852;50.082;18.554;2022-09-09T04:53:16;98393.0;;;16.83;85.2
23361;BME280;11852;50.082;18.554;2022-09-09T04:54:24;98396.5;;;17.03;84.56
23361;BME280;11852;50.082;18.554;2022-09-09T04:55:28;98397.5;;;16.69;85.51
23361;BME280;11852;50.082;18.554;2022-09-09T04:56:33;98398.5;;;16.8;85.07
23361;BME280;11852;50.082;18.554;2022-09-09T04:57:38;98401.5;;;16.79;85.05
23361;BME280;11852;50.082;18.554;2022-09-09T04:58:57;98408.0;;;16.89;84.79
23361;BME280;11852;50.082;18.554;2022-09-09T05:00:00;98410.5;;;16.76;85.16
23361;BME280;11852;50.082;18.554;2022-09-09T05:01:07;98412.5;;;16.38;86.65
23361;BME280;11852;50.082;18.554;2022-09-09T05:02:11;98413.5;;;16.28;86.74
23361;BME280;11852;50.082;18.554;2022-09-09T05:03:15;98413.5;;;16.14;87.15
23361;BME280;11852;50.082;18.554;2022-09-09T05:04:20;98415.5;;;16.32;86.46
23361;BME280;11852;50.082;18.554;2022-09-09T05:07:15;98414.0;;;16.42;86.29
23361;BME280;11852;50.082;18.554;2022-09-09T05:12:01;98421.0;;;17.01;84.78
23361;BME280;11852;50.082;18.554;2022-09-09T05:15:56;98425.5;;;16.56;86.29
23361;BME280;11852;50.082;18.554;2022-09-09T05:20:39;98430.0;;;16.55;86.15
23361;BME280;11852;50.082;18.554;2022-09-09T05:25:23;98427.5;;;16.26;87.07
23361;BME280;11852;50.082;18.554;2022-09-09T05:26:27;98430.0;;;16.38;86.71
23361;BME280;11852;50.082;18.554;2022-09-09T05:27:33;98431.0;;;16.51;86.36
23361;BME280;11852;50.082;18.554;2022-09-09T05:28:36;98431.0;;;16.76;85.59
23361;BME280;11852;50.082;18.554;2022-09-09T05:32:17;98433.5;;;16.85;85.46
23361;BME280;11852;50.082;18.554;2022-09-09T05:33:22;98436.0;;;16.78;85.71
23361;BME280;11852;50.082;18.554;2022-09-09T05:34:26;98440.0;;;16.94;85.21
23361;BME280;11852;50.082;18.554;2022-09-09T05:35:30;98438.5;;;16.74;85.94
23361;BME280;11852;50.082;18.554;2022-09-09T05:36:35;98437.0;;;16.76;85.85
23361;BME280;11852;50.082;18.554;2022-09-09T05:37:39;98437.5;;;16.67;86.15
23361;BME280;11852;50.082;18.554;2022-09-09T05:38:45;98437.0;;;16.62;86.22
23361;BME280;11852;50.082;18.554;2022-09-09T05:39:49;98438.0;;;16.62;86.27
23361;BME280;11852;50.082;18.554;2022-09-09T05:40:57;98437.0;;;16.42;86.9
23361;BME280;11852;50.082;18.554;2022-09-09T05:42:01;98439.0;;;16.36;87.18
23361;BME280;11852;50.082;18.554;2022-09-09T05:44:55;98436.0;;;16.36;87.33
23361;BME280;11852;50.082;18.554;2022-09-09T05:49:38;98427.5;;;16.64;86.75
23361;BME280;11852;50.082;18.554;2022-09-09T05:50:43;98427.0;;;16.55;86.92
23361;BME280;11852;50.082;18.554;2022-09-09T05:54:06;98430.5;;;16.81;86.32
23361;BME280;11852;50.082;18.554;2022-09-09T05:59:19;98431.5;;;16.89;86.29
23361;BME280;11852;50.082;18.554;2022-09-09T06:04:03;98431.0;;;17.11;85.85
23361;BME280;11852;50.082;18.554;2022-09-09T06:08:47;98429.51;;;17.38;84.93
23361;BME280;11852;50.082;18.554;2022-09-09T06:14:09;98428.0;;;17.26;85.85
23361;BME280;11852;50.082;18.554;2022-09-09T06:15:13;98431.5;;;17.46;85.38
23361;BME280;11852;50.082;18.554;2022-09-09T06:18:52;98432.99;;;17.26;85.96
23361;BME280;11852;50.082;18.554;2022-09-09T06:19:56;98432.0;;;17.42;85.32
23361;BME280;11852;50.082;18.554;2022-09-09T06:21:03;98430.5;;;17.38;85.6
23361;BME280;11852;50.082;18.554;2022-09-09T06:23:12;98432.0;;;17.33;85.81
23361;BME280;11852;50.082;18.554;2022-09-09T06:24:16;98430.0;;;17.74;84.6
23361;BME280;11852;50.082;18.554;2022-09-09T06:25:20;98430.01;;;17.66;84.97
23361;BME280;11852;50.082;18.554;2022-09-09T06:26:28;98431.0;;;17.78;84.64
23361;BME280;11852;50.082;18.554;2022-09-09T06:27:31;98435.0;;;17.91;84.47
23361;BME280;11852;50.082;18.554;2022-09-09T06:28:36;98429.0;;;17.61;85.51
23361;BME280;11852;50.082;18.554;2022-09-09T06:29:40;98431.0;;;17.81;84.81
23361;BME280;11852;50.082;18.554;2022-09-09T06:30:44;98429.0;;;17.46;85.85
23361;BME280;11852;50.082;18.554;2022-09-09T06:31:49;98429.0;;;17.66;85.01
23361;BME280;11852;50.082;18.554;2022-09-09T06:32:55;98426.0;;;17.74;85.04
23361;BME280;11852;50.082;18.554;2022-09-09T06:33:57;98429.0;;;18.02;84.25
23361;BME280;11852;50.082;18.554;2022-09-09T06:36:07;98428.5;;;18.43;83.08
23361;BME280;11852;50.082;18.554;2022-09-09T06:37:10;98427.5;;;18.45;83.46
23361;BME280;11852;50.082;18.554;2022-09-09T06:38:14;98427.5;;;18.59;83.12
23361;BME280;11852;50.082;18.554;2022-09-09T06:39:18;98426.0;;;18.65;83.36
23361;BME280;11852;50.082;18.554;2022-09-09T06:40:24;98425.5;;;18.59;83.35
23361;BME280;11852;50.082;18.554;2022-09-09T06:41:29;98427.5;;;18.17;84.49
23361;BME280;11852;50.082;18.554;2022-09-09T06:42:33;98426.0;;;18.56;83.18
23361;BME280;11852;50.082;18.554;2022-09-09T06:43:37;98428.0;;;18.7;82.88
23361;BME280;11852;50.082;18.554;2022-09-09T06:44:41;98430.5;;;18.67;83.31
23361;BME280;11852;50.082;18.554;2022-09-09T06:47:00;98428.0;;;18.47;84.07
23361;BME280;11852;50.082;18.554;2022-09-09T06:48:05;98425.0;;;18.26;84.51
23361;BME280;11852;50.082;18.554;2022-09-09T06:49:09;98425.5;;;18.51;83.62
23361;BME280;11852;50.082;18.554;2022-09-09T06:50:13;98425.5;;;18.6;83.24
23361;BME280;11852;50.082;18.554;2022-09-09T06:51:19;98421.5;;;18.26;84.46
23361;BME280;11852;50.082;18.554;2022-09-09T06:52:22;98421.0;;;18.26;84.09
23361;BME280;11852;50.082;18.554;2022-09-09T06:53:26;98418.5;;;18.35;83.76
23361;BME280;11852;50.082;18.554;2022-09-09T06:54:31;98418.0;;;18.21;84.11
23361;BME280;11852;50.082;18.554;2022-09-09T06:55:35;98415.0;;;18.06;84.74
23361;BME280;11852;50.082;18.554;2022-09-09T06:56:42;98415.5;;;18.03;84.88
23361;BME280;11852;50.082;18.554;2022-09-09T06:57:46;98415.5;;;18.04;84.69
23361;BME280;11852;50.082;18.554;2022-09-09T06:58:51;98416.0;;;18.0;84.8
23361;BME280;11852;50.082;18.554;2022-09-09T06:59:55;98415.5;;;18.05;84.54
23361;BME280;11852;50.082;18.554;2022-09-09T07:01:04;98412.0;;;17.78;85.52
23361;BME280;11852;50.082;18.554;2022-09-09T07:02:10;98415.5;;;18.11;84.16
23361;BME280;11852;50.082;18.554;2022-09-09T07:03:14;98416.0;;;18.08;84.63
23361;BME280;11852;50.082;18.554;2022-09-09T07:04:18;98412.5;;;18.04;84.63
23361;BME280;11852;50.082;18.554;2022-09-09T07:05:23;98414.5;;;17.91;85.01
23361;BME280;11852;50.082;18.554;2022-09-09T07:06:28;98412.5;;;18.08;84.42
23361;BME280;11852;50.082;18.554;2022-09-09T07:07:32;98411.5;;;17.91;85.01
23361;BME280;11852;50.082;18.554;2022-09-09T07:08:36;98410.5;;;17.92;84.79
23361;BME280;11852;50.082;18.554;2022-09-09T07:09:40;98414.0;;;18.29;83.94
23361;BME280;11852;50.082;18.554;2022-09-09T07:10:45;98414.5;;;18.35;83.9
23361;BME280;11852;50.082;18.554;2022-09-09T07:11:50;98415.0;;;18.17;84.41
23361;BME280;11852;50.082;18.554;2022-09-09T07:12:53;98415.0;;;18.3;83.9
23361;BME280;11852;50.082;18.554;2022-09-09T07:13:58;98416.0;;;18.3;84.01
23361;BME280;11852;50.082;18.554;2022-09-09T07:15:02;98415.0;;;18.01;84.85
23361;BME280;11852;50.082;18.554;2022-09-09T07:16:07;98417.01;;;18.41;83.4
23361;BME280;11852;50.082;18.554;2022-09-09T07:17:11;98419.99;;;18.68;82.97
23361;BME280;11852;50.082;18.554;2022-09-09T07:18:15;98424.5;;;18.74;83.24
23361;BME280;11852;50.082;18.554;2022-09-09T07:19:19;98428.5;;;18.67;83.56
23361;BME280;11852;50.082;18.554;2022-09-09T07:20:23;98429.51;;;18.62;83.67
23361;BME280;11852;50.082;18.554;2022-09-09T07:21:28;98427.0;;;18.93;82.56
23361;BME280;11852;50.082;18.554;2022-09-09T07:22:32;98430.01;;;19.15;82.46
23361;BME280;11852;50.082;18.554;2022-09-09T07:23:36;98430.51;;;18.93;83.13
23361;BME280;11852;50.082;18.554;2022-09-09T07:24:41;98429.0;;;19.09;82.74
23361;BME280;11852;50.082;18.554;2022-09-09T07:25:46;98431.0;;;19.17;82.67
23361;BME280;11852;50.082;18.554;2022-09-09T07:26:50;98432.99;;;19.33;82.31
23361;BME280;11852;50.082;18.554;2022-09-09T07:27:55;98432.5;;;19.51;81.94